Time;durP1;ratioP1;P1;durP2;ratioP2;P2;SDS_P1;SDS_P2;PMS_P1;PMS_P2;Temp;Humidity;BMP_temperature;BMP_pressure;BME280_temperature;BME280_humidity;BME280_pressure;Samples;Min_cycle;Max_cycle;Signal;HPM_P1;HPM_P2
2022/03/02 00:01:02;;;;;;;71.60;36.03;;;5.10;99.90;;;;;;5051671;28;20051;-72
2022/03/02 00:03:28;;;;;;;70.95;34.70;;;;;;;;;;5051901;28;20389;-72
2022/03/02 00:05:54;;;;;;;69.03;35.03;;;;;;;;;;5051936;28;20028;-72
2022/03/02 00:08:20;;;;;;;69.57;34.75;;;;;;;;;;5035041;28;20071;-72
2022/03/02 00:10:46;;;;;;;69.57;34.70;;;;;;;;;;5034599;28;20040;-72
2022/03/02 00:13:12;;;;;;;70.28;35.47;;;;;;;;;;5034615;28;20044;-72
2022/03/02 00:15:38;;;;;;;66.88;33.47;;;;;;;;;;5051656;28;20041;-72
2022/03/02 00:18:05;;;;;;;72.15;36.13;;;;;;;;;;5051607;28;20127;-72
2022/03/02 00:20:31;;;;;;;69.88;34.72;;;;;;;;;;5051063;28;20041;-72
2022/03/02 00:22:57;;;;;;;66.50;34.90;;;;;;;;;;5051172;28;20029;-72
2022/03/02 00:25:23;;;;;;;71.72;34.50;;;;;;;;;;5051138;28;20068;-72
2022/03/02 00:27:49;;;;;;;67.65;34.95;;;;;;;;;;5051574;28;20493;-72
2022/03/02 00:30:15;;;;;;;64.60;34.47;;;;;;;;;;5051445;28;20033;-72
2022/03/02 00:32:42;;;;;;;68.10;34.95;;;;;;;;;;5034659;28;20072;-72
2022/03/02 00:35:08;;;;;;;71.68;34.42;;;;;;;;;;5051343;28;20049;-72
2022/03/02 00:37:34;;;;;;;69.32;33.15;;;;;;;;;;5051299;28;20505;-72
2022/03/02 00:40:00;;;;;;;63.70;33.67;;;;;;;;;;5034397;28;20037;-72
2022/03/02 00:42:29;;;;;;;68.25;34.47;;;;;;;;;;5051066;28;20040;-72
2022/03/02 00:44:56;;;;;;;70.32;33.85;;;5.30;99.90;;;;;;5050943;28;20045;-72
2022/03/02 00:47:22;;;;;;;70.68;35.05;;;;;;;;;;5051081;28;20041;-72
2022/03/02 00:49:48;;;;;;;64.35;33.80;;;;;;;;;;5050965;28;20040;-72
2022/03/02 00:52:14;;;;;;;73.07;33.70;;;4.20;99.90;;;;;;5051126;28;20084;-72
2022/03/02 00:54:41;;;;;;;66.60;34.65;;;;;;;;;;5051008;28;20133;-72
2022/03/02 00:57:07;;;;;;;72.68;35.78;;;;;;;;;;5050826;28;20033;-72
2022/03/02 00:59:33;;;;;;;72.88;34.75;;;;;;;;;;5050568;28;20147;-72
2022/03/02 01:01:59;;;;;;;72.78;35.05;;;;;;;;;;5034403;28;20029;-72
2022/03/02 01:04:25;;;;;;;65.45;33.67;;;;;;;;;;5050558;28;20421;-72
2022/03/02 01:06:51;;;;;;;73.50;34.47;;;;;;;;;;5051032;28;20033;-72
2022/03/02 01:09:17;;;;;;;73.47;36.28;;;;;;;;;;5050498;28;20045;-72
2022/03/02 01:11:43;;;;;;;67.90;35.08;;;;;;;;;;5050838;28;20463;-72
2022/03/02 01:14:10;;;;;;;72.88;35.38;;;;;;;;;;5034307;28;20047;-72
2022/03/02 01:16:36;;;;;;;70.80;34.78;;;;;;;;;;5050698;28;20083;-72
2022/03/02 01:19:02;;;;;;;66.20;33.97;;;5.10;99.90;;;;;;5050735;28;20044;-72
2022/03/02 01:21:28;;;;;;;72.72;34.83;;;;;;;;;;5050229;28;20040;-72
2022/03/02 01:23:56;;;;;;;72.03;34.85;;;;;;;;;;5035962;28;20112;-72
2022/03/02 01:26:24;;;;;;;74.55;33.40;;;;;;;;;;5054891;28;20527;-72
2022/03/02 01:28:51;;;;;;;73.22;35.67;;;;;;;;;;5054682;28;20044;-72
2022/03/02 01:31:18;;;;;;;72.53;34.28;;;;;;;;;;5054236;28;20033;-72
2022/03/02 01:33:44;;;;;;;70.18;32.90;;;;;;;;;;5054678;28;20131;-72
2022/03/02 01:36:10;;;;;;;72.32;33.50;;;;;;;;;;5054127;28;20090;-72
2022/03/02 01:38:36;;;;;;;61.65;31.50;;;;;;;;;;5054818;28;20409;-72
2022/03/02 01:41:04;;;;;;;68.38;33.88;;;;;;;;;;5055418;28;20040;-72
2022/03/02 01:43:30;;;;;;;68.68;34.47;;;;;;;;;;5054252;28;20044;-72
2022/03/02 01:45:56;;;;;;;66.40;32.38;;;;;;;;;;5037433;28;20067;-72
2022/03/02 01:48:22;;;;;;;66.82;33.13;;;;;;;;;;5086904;28;20041;-72
2022/03/02 01:50:48;;;;;;;62.83;32.40;;;;;;;;;;5037609;28;20036;-72
2022/03/02 01:53:15;;;;;;;64.85;32.88;;;;;;;;;;5054281;28;20037;-72
2022/03/02 01:55:41;;;;;;;71.10;34.20;;;;;;;;;;5054403;28;20098;-72
2022/03/02 01:58:10;;;;;;;66.95;31.95;;;;;;;;;;5037795;28;20102;-72
2022/03/02 02:00:36;;;;;;;68.03;34.28;;;;;;;;;;5054133;28;20037;-72
2022/03/02 02:03:02;;;;;;;68.15;34.08;;;;;;;;;;5054194;28;20037;-72
2022/03/02 02:05:28;;;;;;;74.88;33.60;;;;;;;;;;5053869;28;20045;-72
2022/03/02 02:07:54;;;;;;;68.72;33.17;;;;;;;;;;5054373;28;20440;-72
2022/03/02 02:10:20;;;;;;;68.38;33.67;;;;;;;;;;5037484;28;20114;-72
2022/03/02 02:12:46;;;;;;;69.20;31.13;;;;;;;;;;5054068;28;20048;-72
2022/03/02 02:15:13;;;;;;;67.13;34.65;;;;;;;;;;5053924;28;20037;-72
2022/03/02 02:17:40;;;;;;;68.47;31.50;;;;;;;;;;5037288;28;20041;-72
2022/03/02 02:20:07;;;;;;;71.85;34.00;;;;;;;;;;5053499;28;20457;-72
2022/03/02 02:22:41;;;;;;;68.35;33.40;;;5.00;99.90;;;;;;5053697;28;20076;-73
2022/03/02 02:25:07;;;;;;;67.63;32.90;;;;;;;;;;5053509;28;20041;-72
2022/03/02 02:27:34;;;;;;;76.82;33.72;;;;;;;;;;5053751;28;20044;-73
2022/03/02 02:30:02;;;;;;;69.32;32.20;;;5.00;99.90;;;;;;5036758;28;20228;-73
2022/03/02 02:32:28;;;;;;;68.80;34.00;;;;;;;;;;5052838;28;20048;-72
2022/03/02 02:34:54;;;;;;;68.15;32.67;;;;;;;;;;5050810;28;20087;-72
2022/03/02 02:37:20;;;;;;;73.43;32.95;;;;;;;;;;5036839;28;20227;-72
2022/03/02 02:39:58;;;;;;;67.65;32.80;;;5.10;99.90;;;;;;5053107;28;20044;-72
2022/03/02 02:42:24;;;;;;;64.55;31.98;;;;;;;;;;5051411;28;20400;-72
2022/03/02 02:44:51;;;;;;;68.97;33.55;;;;;;;;;;5052872;28;20619;-73
2022/03/02 02:47:17;;;;;;;72.88;34.42;;;;;;;;;;5053234;28;20112;-73
2022/03/02 02:49:43;;;;;;;67.25;33.80;;;;;;;;;;5052944;28;20037;-73
2022/03/02 02:52:09;;;;;;;74.57;34.72;;;;;;;;;;5052845;28;20044;-73
2022/03/02 02:54:35;;;;;;;79.57;34.55;;;;;;;;;;5053051;28;20063;-73
2022/03/02 02:57:01;;;;;;;70.85;33.85;;;;;;;;;;5049930;28;20041;-73
2022/03/02 02:59:27;;;;;;;82.25;35.20;;;;;;;;;;5019563;28;20045;-73
2022/03/02 03:01:53;;;;;;;72.28;34.78;;;;;;;;;;5021021;28;20053;-73
2022/03/02 03:04:19;;;;;;;74.30;34.58;;;;;;;;;;5031018;28;20069;-73
2022/03/02 03:06:45;;;;;;;76.55;35.30;;;;;;;;;;5038433;28;20128;-73
2022/03/02 03:09:12;;;;;;;74.97;34.88;;;;;;;;;;5034046;28;20041;-73
2022/03/02 03:11:41;;;;;;;85.05;35.58;;;4.60;99.90;;;;;;5040529;28;20045;-73
2022/03/02 03:14:14;;;;;;;78.63;35.47;;;4.30;99.90;;;;;;5034628;28;20073;-73
2022/03/02 03:16:41;;;;;;;76.65;35.70;;;4.50;99.90;;;;;;5076964;28;20045;-73
2022/03/02 03:19:08;;;;;;;83.07;37.33;;;;;;;;;;5051539;28;20044;-73
2022/03/02 03:21:34;;;;;;;83.93;37.05;;;;;;;;;;5077587;28;20045;-73
2022/03/02 03:24:00;;;;;;;83.50;38.15;;;;;;;;;;5052635;28;20029;-73
2022/03/02 03:26:26;;;;;;;89.70;39.60;;;4.40;99.90;;;;;;5052469;28;20098;-73
2022/03/02 03:28:52;;;;;;;89.38;39.08;;;;;;;;;;5052398;28;20036;-73
2022/03/02 03:31:18;;;;;;;86.68;37.78;;;;;;;;;;5035652;28;20037;-73
2022/03/02 03:33:45;;;;;;;89.60;38.08;;;;;;;;;;5052000;28;20485;-73
2022/03/02 03:36:11;;;;;;;85.57;35.80;;;;;;;;;;5051916;28;20133;-73
2022/03/02 03:38:37;;;;;;;89.13;37.78;;;;;;;;;;5052476;28;20041;-73
2022/03/02 03:41:03;;;;;;;88.85;37.20;;;;;;;;;;5051875;28;20045;-73
2022/03/02 03:43:29;;;;;;;84.93;36.53;;;;;;;;;;5052240;28;20045;-73
2022/03/02 03:45:55;;;;;;;81.05;37.17;;;;;;;;;;5051390;28;20053;-73
2022/03/02 03:48:21;;;;;;;92.88;38.58;;;;;;;;;;5084888;28;20377;-73
2022/03/02 03:50:47;;;;;;;89.80;35.90;;;;;;;;;;5051955;28;20043;-73
2022/03/02 03:53:14;;;;;;;85.43;36.58;;;;;;;;;;5035445;28;20436;-73
2022/03/02 03:55:40;;;;;;;90.78;37.33;;;;;;;;;;5019182;28;20033;-73
2022/03/02 03:58:06;;;;;;;87.28;35.97;;;;;;;;;;5051733;28;20036;-73
2022/03/02 04:00:32;;;;;;;86.53;35.40;;;;;;;;;;5051639;28;20041;-73
2022/03/02 04:02:58;;;;;;;86.82;37.92;;;;;;;;;;5051728;28;20047;-73
2022/03/02 04:05:24;;;;;;;96.30;36.20;;;;;;;;;;5051937;28;20091;-73
2022/03/02 04:07:51;;;;;;;89.45;37.17;;;;;;;;;;5051383;28;20037;-73
2022/03/02 04:10:17;;;;;;;83.43;34.88;;;3.90;99.90;;;;;;5051477;28;20477;-73
2022/03/02 04:12:44;;;;;;;88.03;36.70;;;;;;;;;;5051538;28;20047;-73
2022/03/02 04:15:11;;;;;;;87.47;35.78;;;4.00;99.90;;;;;;5084289;28;20159;-73
2022/03/02 04:17:37;;;;;;;80.32;36.13;;;;;;;;;;5018146;28;20500;-73
2022/03/02 04:20:05;;;;;;;88.55;38.75;;;3.90;99.90;;;;;;5051542;28;20439;-73
2022/03/02 04:22:31;;;;;;;85.45;35.95;;;;;;;;;;5034731;28;20399;-73
2022/03/02 04:24:57;;;;;;;90.97;35.83;;;;;;;;;;5051326;28;20044;-73
2022/03/02 04:27:24;;;;;;;85.18;36.45;;;;;;;;;;5050996;28;20095;-73
2022/03/02 04:29:50;;;;;;;83.72;36.58;;;;;;;;;;5051250;28;20473;-73
2022/03/02 04:32:16;;;;;;;86.30;38.53;;;;;;;;;;5051356;28;20041;-73
2022/03/02 04:34:42;;;;;;;91.60;36.53;;;;;;;;;;5034544;28;20071;-73
2022/03/02 04:37:08;;;;;;;87.55;36.88;;;;;;;;;;5034381;28;20083;-73
2022/03/02 04:39:34;;;;;;;83.25;36.40;;;;;;;;;;5051341;28;20115;-73
2022/03/02 04:42:00;;;;;;;86.15;37.13;;;;;;;;;;5050920;28;20043;-73
2022/03/02 04:44:26;;;;;;;80.65;35.30;;;;;;;;;;5050784;28;20045;-73
2022/03/02 04:46:52;;;;;;;78.43;36.38;;;4.40;99.90;;;;;;5034213;28;20045;-73
2022/03/02 04:49:19;;;;;;;82.70;36.05;;;3.60;99.90;;;;;;5034679;28;20083;-73
2022/03/02 04:51:46;;;;;;;82.40;35.60;;;;;;;;;;5034476;28;20037;-73
2022/03/02 04:56:58;;;;;;;82.63;36.55;;;;;;;;;;5050578;28;20087;-73
2022/03/02 04:59:24;;;;;;;84.88;36.40;;;;;;;;;;5050013;28;20473;-73
2022/03/02 05:01:50;;;;;;;77.47;34.95;;;;;;;;;;5050809;28;20068;-73
2022/03/02 05:04:16;;;;;;;78.80;35.20;;;3.70;99.90;;;;;;5050695;28;20048;-73
2022/03/02 05:06:42;;;;;;;82.57;35.88;;;;;;;;;;5051034;28;20041;-73
2022/03/02 05:09:08;;;;;;;83.38;37.72;;;;;;;;;;5050634;28;20067;-73
2022/03/02 05:11:34;;;;;;;76.80;34.15;;;;;;;;;;5051091;28;20397;-73
2022/03/02 05:14:00;;;;;;;86.85;35.72;;;;;;;;;;5050705;28;20083;-73
2022/03/02 05:16:26;;;;;;;76.13;35.95;;;;;;;;;;5050641;28;20611;-73
2022/03/02 05:18:52;;;;;;;76.03;34.88;;;;;;;;;;5033851;28;20037;-73
2022/03/02 05:21:19;;;;;;;82.68;36.15;;;;;;;;;;5050736;28;20393;-73
2022/03/02 05:23:45;;;;;;;81.88;37.03;;;;;;;;;;5034400;28;20499;-73
2022/03/02 05:26:11;;;;;;;83.40;36.22;;;;;;;;;;5050912;28;20037;-73
2022/03/02 05:28:37;;;;;;;81.65;34.50;;;;;;;;;;5050715;28;20041;-73
2022/03/02 05:31:04;;;;;;;85.53;37.40;;;;;;;;;;5050983;28;20043;-73
2022/03/02 05:33:30;;;;;;;87.63;37.72;;;;;;;;;;5050376;28;20037;-73
2022/03/02 05:35:56;;;;;;;81.68;36.80;;;;;;;;;;5034038;28;20127;-73
2022/03/02 05:38:22;;;;;;;74.13;34.50;;;;;;;;;;5050317;28;20397;-73
2022/03/02 05:40:48;;;;;;;84.72;37.05;;;;;;;;;;5050334;28;20392;-73
2022/03/02 05:43:14;;;;;;;83.72;37.80;;;;;;;;;;5033968;28;20396;-73
2022/03/02 05:45:40;;;;;;;75.10;35.83;;;;;;;;;;5033774;28;20037;-73
2022/03/02 05:48:06;;;;;;;76.07;36.70;;;;;;;;;;5050043;28;20492;-73
2022/03/02 05:50:32;;;;;;;77.43;36.70;;;;;;;;;;5050364;28;20079;-73
2022/03/02 05:52:58;;;;;;;76.57;35.80;;;;;;;;;;5050613;28;20496;-73
2022/03/02 05:55:25;;;;;;;84.63;35.55;;;;;;;;;;5050403;28;20041;-73
2022/03/02 05:57:51;;;;;;;71.78;35.05;;;;;;;;;;5050414;28;20457;-73
2022/03/02 06:00:17;;;;;;;75.78;35.95;;;;;;;;;;5050682;28;20047;-73
2022/03/02 06:02:43;;;;;;;75.15;36.67;;;;;;;;;;5050629;28;20114;-73
2022/03/02 06:05:09;;;;;;;76.95;35.97;;;;;;;;;;5050137;28;20436;-73
2022/03/02 06:07:35;;;;;;;76.45;35.65;;;;;;;;;;5050124;28;20083;-73
2022/03/02 06:10:02;;;;;;;77.68;35.72;;;;;;;;;;5051485;28;21920;-72
2022/03/02 06:12:28;;;;;;;82.78;37.17;;;;;;;;;;5053746;28;20033;-72
2022/03/02 06:14:54;;;;;;;72.13;34.90;;;3.80;99.90;;;;;;5053676;28;20069;-72
2022/03/02 06:17:21;;;;;;;84.00;36.10;;;;;;;;;;5053400;28;20045;-72
2022/03/02 06:19:47;;;;;;;80.28;35.25;;;;;;;;;;5053344;28;20041;-72
2022/03/02 06:22:16;;;;;;;81.38;36.95;;;3.30;99.90;;;;;;5053060;28;20111;-74
2022/03/02 06:24:42;;;;;;;73.20;35.35;;;;;;;;;;5054096;28;20037;-74
2022/03/02 06:27:08;;;;;;;75.05;35.90;;;;;;;;;;5054002;28;20049;-75
2022/03/02 06:29:34;;;;;;;70.07;34.80;;;;;;;;;;5037021;28;20514;-74
2022/03/02 06:32:02;;;;;;;72.53;34.42;;;;;;;;;;5054004;28;20045;-75
2022/03/02 06:34:28;;;;;;;79.20;36.20;;;;;;;;;;5042844;28;20041;-74
2022/03/02 06:36:54;;;;;;;67.53;33.22;;;;;;;;;;5053253;28;20099;-74
2022/03/02 06:39:22;;;;;;;70.45;34.80;;;3.20;99.90;;;;;;5053554;28;20097;-75
2022/03/02 06:42:22;;;;;;;76.82;36.20;;;3.20;99.90;;;;;;5053116;28;20041;-73
2022/03/02 06:44:55;;;;;;;73.90;33.85;;;3.20;99.90;;;;;;5053347;28;20056;-73
2022/03/02 06:47:27;;;;;;;82.90;35.28;;;3.30;99.90;;;;;;5053243;28;20038;-73
2022/03/02 06:50:12;;;;;;;74.85;35.63;;;3.10;99.90;;;;;;5050811;28;20108;-72
2022/03/02 06:52:44;;;;;;;76.55;35.72;;;3.10;99.90;;;;;;5053074;28;20041;-72
2022/03/02 06:55:13;;;;;;;71.43;33.83;;;3.10;99.90;;;;;;5050116;28;20048;-73
2022/03/02 06:57:40;;;;;;;74.63;34.83;;;;;;;;;;5042957;28;20063;-73
2022/03/02 07:00:10;;;;;;;75.40;34.45;;;3.20;99.90;;;;;;5047720;28;20046;-74
2022/03/02 07:02:49;;;;;;;74.43;35.70;;;3.20;99.90;;;;;;5027717;28;20041;-73
2022/03/02 07:05:16;;;;;;;74.93;34.42;;;3.00;99.90;;;;;;5067372;28;20041;-73
2022/03/02 07:07:42;;;;;;;73.70;36.05;;;;;;;;;;5040156;28;20044;-74
2022/03/02 07:10:09;;;;;;;74.22;35.38;;;3.20;99.90;;;;;;5050861;28;20048;-74
2022/03/02 07:12:36;;;;;;;71.68;34.97;;;3.00;99.90;;;;;;5052584;28;20029;-74
2022/03/02 07:15:04;;;;;;;83.57;36.40;;;;;;;;;;5052415;28;20123;-74
2022/03/02 07:17:33;;;;;;;69.60;35.88;;;;;;;;;;5052454;28;20037;-74
2022/03/02 07:20:01;;;;;;;76.28;35.25;;;3.00;99.90;;;;;;5052452;28;20511;-74
2022/03/02 07:22:32;;;;;;;75.20;33.67;;;3.00;99.90;;;;;;5051902;28;20041;-74
2022/03/02 07:25:16;;;;;;;74.60;35.90;;;3.10;99.90;;;;;;5052748;28;20385;-74
2022/03/02 07:27:42;;;;;;;72.10;34.50;;;;;;;;;;5050817;28;20500;-74
2022/03/02 07:30:09;;;;;;;74.40;36.60;;;3.20;99.90;;;;;;5052127;28;20045;-74
2022/03/02 07:32:37;;;;;;;75.72;35.97;;;;;;;;;;5051967;28;20385;-74
2022/03/02 07:35:05;;;;;;;77.05;37.00;;;3.40;99.90;;;;;;5050789;28;20094;-74
2022/03/02 07:37:31;;;;;;;75.50;34.90;;;;;;;;;;5050444;28;20044;-74
2022/03/02 07:39:59;;;;;;;73.50;36.95;;;;;;;;;;5052101;28;20102;-74
2022/03/02 07:42:25;;;;;;;81.75;36.97;;;;;;;;;;5052152;28;20037;-74
2022/03/02 07:44:52;;;;;;;71.63;35.45;;;3.50;99.90;;;;;;5079571;28;20053;-74
2022/03/02 07:47:18;;;;;;;80.38;36.47;;;;;;;;;;5051600;28;20041;-73
2022/03/02 07:49:46;;;;;;;78.32;36.13;;;;;;;;;;5051817;28;20529;-73
2022/03/02 07:52:13;;;;;;;81.25;35.67;;;;;;;;;;5052051;28;20044;-73
2022/03/02 07:54:41;;;;;;;73.07;34.70;;;;;;;;;;5052169;28;20033;-73
2022/03/02 07:57:08;;;;;;;76.22;37.10;;;;;;;;;;5049126;28;20051;-73
2022/03/02 07:59:39;;;;;;;75.40;35.55;;;;;;;;;;5035070;28;20068;-73
2022/03/02 08:02:06;;;;;;;74.45;35.25;;;;;;;;;;5050470;28;20041;-73
2022/03/02 08:04:33;;;;;;;79.18;36.20;;;;;;;;;;5033500;28;20033;-72
2022/03/02 08:06:59;;;;;;;80.25;35.10;;;;;;;;;;5049768;28;20032;-73
2022/03/02 08:09:25;;;;;;;69.72;35.17;;;;;;;;;;5051431;28;20033;-73
2022/03/02 08:11:51;;;;;;;75.25;36.17;;;;;;;;;;5034518;28;20120;-73
2022/03/02 08:14:18;;;;;;;71.90;35.22;;;;;;;;;;5049178;28;20039;-75
2022/03/02 08:16:45;;;;;;;78.68;36.22;;;3.80;99.90;;;;;;5051534;28;20040;-76
2022/03/02 08:19:12;;;;;;;72.38;35.72;;;;;;;;;;5051753;28;20444;-75
2022/03/02 08:21:43;;;;;;;74.70;36.33;;;3.80;99.90;;;;;;5050871;28;20099;-75
2022/03/02 08:24:12;;;;;;;77.50;36.90;;;;;;;;;;5051221;28;20044;-75
2022/03/02 08:26:38;;;;;;;73.85;35.55;;;;;;;;;;5034112;28;20119;-75
2022/03/02 08:29:10;;;;;;;75.45;34.83;;;;;;;;;;5050803;28;20056;-75
2022/03/02 08:31:37;;;;;;;73.90;35.07;;;;;;;;;;5051270;28;20091;-74
2022/03/02 08:34:04;;;;;;;75.30;36.38;;;;;;;;;;5049186;28;20294;-75
2022/03/02 08:36:34;;;;;;;77.22;36.28;;;;;;;;;;5051540;28;20124;-74
2022/03/02 08:39:01;;;;;;;75.97;35.67;;;;;;;;;;5052079;28;20040;-73
2022/03/02 08:41:28;;;;;;;72.78;36.22;;;;;;;;;;5051739;28;20442;-73
2022/03/02 08:43:55;;;;;;;76.28;37.42;;;;;;;;;;5035148;28;20120;-74
2022/03/02 08:46:22;;;;;;;78.35;36.03;;;;;;;;;;5051916;28;20044;-73
2022/03/02 08:48:48;;;;;;;73.45;35.33;;;;;;;;;;5052078;28;20033;-75
2022/03/02 08:51:14;;;;;;;74.25;36.25;;;;;;;;;;5051793;28;20088;-75
2022/03/02 08:53:41;;;;;;;71.88;36.15;;;;;;;;;;5035058;28;20052;-75
2022/03/02 08:56:07;;;;;;;73.38;36.22;;;;;;;;;;5050385;28;20504;-75
2022/03/02 08:58:33;;;;;;;74.00;36.03;;;;;;;;;;5052338;28;20124;-75
2022/03/02 09:01:01;;;;;;;74.60;35.10;;;4.60;99.90;;;;;;5051363;28;20451;-75
2022/03/02 09:03:27;;;;;;;75.22;36.25;;;;;;;;;;5035456;28;20033;-75
2022/03/02 09:05:54;;;;;;;72.78;35.40;;;4.70;99.90;;;;;;5051770;28;20396;-75
2022/03/02 09:08:20;;;;;;;77.15;36.35;;;;;;;;;;5034917;28;20072;-75
2022/03/02 09:10:46;;;;;;;76.15;34.95;;;;;;;;;;5051505;28;20045;-75
2022/03/02 09:13:12;;;;;;;74.72;33.83;;;;;;;;;;5051629;28;20083;-75
2022/03/02 09:15:39;;;;;;;73.15;34.25;;;5.00;99.90;;;;;;5051596;28;20037;-75
2022/03/02 09:18:05;;;;;;;72.43;35.05;;;;;;;;;;5015136;28;20060;-75
2022/03/02 09:20:32;;;;;;;70.78;34.42;;;;;;;;;;5023713;28;20117;-76
2022/03/02 09:23:02;;;;;;;70.68;33.72;;;4.90;99.90;;;;;;5051499;28;20366;-76
2022/03/02 09:25:30;;;;;;;65.85;33.60;;;5.20;99.90;;;;;;5034298;28;20052;-76
2022/03/02 09:27:56;;;;;;;75.85;34.53;;;5.30;99.90;;;;;;5033972;28;20041;-75
2022/03/02 09:30:22;;;;;;;77.63;34.97;;;;;;;;;;5016046;28;20072;-75
2022/03/02 09:32:54;;;;;;;67.47;33.53;;;5.30;99.90;;;;;;5032774;28;20074;-75
2022/03/02 09:35:21;;;;;;;72.30;32.83;;;;;;;;;;5050592;28;20374;-75
2022/03/02 09:37:49;;;;;;;71.55;33.00;;;;;;;;;;5051791;28;20132;-75
2022/03/02 09:40:27;;;;;;;73.72;33.78;;;5.30;99.90;;;;;;5051247;28;20045;-75
2022/03/02 09:43:01;;;;;;;70.25;32.30;;;5.50;99.90;;;;;;5051587;28;20052;-75
2022/03/02 09:45:30;;;;;;;65.10;32.45;;;5.70;99.90;;;;;;5037479;28;20063;-75
2022/03/02 09:47:59;;;;;;;63.28;31.58;;;5.80;99.90;;;;;;5055498;28;20047;-75
2022/03/02 09:50:33;;;;;;;81.25;34.33;;;5.70;99.90;;;;;;5055648;28;20490;-75
2022/03/02 09:53:08;;;;;;;72.38;33.45;;;5.80;99.90;;;;;;5055204;28;20048;-75
2022/03/02 09:55:36;;;;;;;66.53;32.17;;;5.60;99.90;;;;;;5055230;28;20045;-75
2022/03/02 09:58:02;;;;;;;67.53;32.30;;;;;;;;;;5055216;28;20045;-75
2022/03/02 10:00:29;;;;;;;68.53;33.58;;;5.90;99.90;;;;;;5055144;28;20045;-75
2022/03/02 10:02:57;;;;;;;65.35;31.48;;;5.80;99.90;;;;;;5055057;28;20045;-75
2022/03/02 10:05:32;;;;;;;65.85;32.83;;;6.10;99.90;;;;;;5055239;28;20481;-75
2022/03/02 10:08:03;;;;;;;67.60;32.90;;;5.90;99.90;;;;;;5054962;28;20044;-74
2022/03/02 10:10:33;;;;;;;71.78;34.53;;;;;;;;;;5054996;28;20048;-75
2022/03/02 10:13:01;;;;;;;66.22;32.67;;;6.10;99.90;;;;;;5055138;28;20045;-75
2022/03/02 10:15:28;;;;;;;62.30;31.13;;;6.20;99.90;;;;;;5054849;28;20049;-75
2022/03/02 10:17:57;;;;;;;62.67;31.38;;;6.30;99.90;;;;;;5038181;28;20044;-73
2022/03/02 10:20:29;;;;;;;66.38;32.40;;;6.30;99.90;;;;;;5054749;28;20166;-73
2022/03/02 10:23:14;;;;;;;73.00;32.63;;;;;;;;;;5054520;28;20039;-73
2022/03/02 10:25:56;;;;;;;72.25;32.60;;;6.60;99.90;;;;;;5038176;28;20268;-73
2022/03/02 10:28:30;;;;;;;72.75;32.88;;;6.70;99.90;;;;;;5054500;28;20076;-73
2022/03/02 10:31:22;;;;;;;67.25;32.53;;;6.50;99.90;;;;;;5054910;28;20120;-73
2022/03/02 10:33:52;;;;;;;65.57;31.85;;;;;;;;;;5037976;28;20048;-73
2022/03/02 10:36:20;;;;;;;74.13;32.95;;;6.80;99.90;;;;;;5054392;28;20047;-73
2022/03/02 10:39:07;;;;;;;65.63;31.73;;;6.90;99.90;;;;;;5054318;28;20070;-72
2022/03/02 10:41:39;;;;;;;63.80;30.25;;;;;;;;;;5054280;28;20045;-72
2022/03/02 10:44:05;;;;;;;;;;;6.80;99.90;;;;;;5054688;28;20041;-73
2022/03/02 10:46:32;;;;;;;63.35;30.48;;;7.30;99.90;;;;;;5054512;28;19916;-74
2022/03/02 10:49:07;;;;;;;66.57;32.67;;;7.20;99.90;;;;;;5054633;28;20110;-74
2022/03/02 10:51:34;;;;;;;64.13;30.27;;;7.20;99.90;;;;;;5054458;28;20076;-74
2022/03/02 10:54:06;;;;;;;64.43;32.13;;;7.20;99.90;;;;;;5054069;28;20037;-75
2022/03/02 10:56:39;;;;;;;64.28;31.05;;;7.50;99.90;;;;;;5053133;28;20045;-73
2022/03/02 10:59:08;;;;;;;68.53;33.65;;;7.30;99.90;;;;;;5053839;28;20047;-71
2022/03/02 11:01:35;;;;;;;69.20;32.42;;;7.40;99.90;;;;;;5036421;28;20041;-74
2022/03/02 11:04:01;;;;;;;69.55;34.05;;;;;;;;;;5053740;28;20492;-73
2022/03/02 11:06:29;;;;;;;58.97;29.85;;;7.70;99.90;;;;;;5053879;28;20059;-74
2022/03/02 11:08:55;;;;;;;62.97;31.27;;;;;;;;;;5037255;28;20037;-73
2022/03/02 11:11:21;;;;;;;62.92;30.10;;;;;;;;;;5036967;28;20465;-73
2022/03/02 11:13:50;;;;;;;60.00;30.33;;;7.80;99.90;;;;;;5054053;28;20040;-73
2022/03/02 11:16:21;;;;;;;65.53;30.50;;;8.10;99.90;;;;;;5053972;28;20041;-73
2022/03/02 11:18:52;;;;;;;62.67;30.45;;;;;;;;;;5053802;28;20049;-74
2022/03/02 11:21:21;;;;;;;73.75;31.30;;;8.00;99.90;;;;;;5053221;28;20067;-74
2022/03/02 11:23:50;;;;;;;61.35;30.75;;;;;;;;;;5054028;28;20499;-75
2022/03/02 11:26:26;;;;;;;60.60;29.27;;;8.30;99.90;;;;;;5053430;28;20037;-73
2022/03/02 11:28:54;;;;;;;64.63;30.35;;;8.20;99.90;;;;;;5052543;28;20083;-72
2022/03/02 11:31:21;;;;;;;60.50;29.25;;;;;;;;;;5052848;28;20041;-72
2022/03/02 11:33:47;;;;;;;59.58;28.65;;;;;;;;;;5052203;28;20048;-72
2022/03/02 11:36:19;;;;;;;58.10;28.63;;;8.50;99.90;;;;;;5035901;28;20441;-72
2022/03/02 11:38:56;;;;;;;60.83;30.00;;;;;;;;;;5052183;28;20393;-72
2022/03/02 11:41:33;;;;;;;66.15;30.00;;;9.00;99.90;;;;;;5050500;28;20041;-72
2022/03/02 11:44:00;;;;;;;62.97;29.20;;;9.00;99.90;;;;;;5051777;28;20039;-72
2022/03/02 11:46:26;;;;;;;62.05;32.42;;;;;;;;;;5035672;28;20079;-72
2022/03/02 11:48:53;;;;;;;56.03;28.60;;;;;;;;;;5051887;28;20028;-72
2022/03/02 11:51:23;;;;;;;59.70;28.80;;;9.40;99.90;;;;;;5033098;28;20087;-72
2022/03/02 11:53:58;;;;;;;52.22;28.83;;;9.20;99.90;;;;;;5051908;28;20041;-72
2022/03/02 11:56:27;;;;;;;62.70;30.33;;;9.40;99.90;;;;;;5052065;28;20044;-72
2022/03/02 11:58:53;;;;;;;57.45;29.08;;;;;;;;;;5051816;28;20086;-72
2022/03/02 12:01:19;;;;;;;56.03;28.60;;;;;;;;;;5051665;28;20041;-73
2022/03/02 12:03:56;;;;;;;58.15;29.30;;;9.50;99.90;;;;;;5051632;28;20047;-73
2022/03/02 12:06:23;;;;;;;57.15;28.40;;;;;;;;;;5052288;28;20041;-74
2022/03/02 12:08:53;;;;;;;58.90;29.13;;;10.00;99.90;;;;;;5034572;28;20033;-74
2022/03/02 12:11:26;;;;;;;58.75;28.88;;;;;;;;;;5035092;28;20178;-72
2022/03/02 12:14:10;;;;;;;54.72;28.65;;;10.00;99.90;;;;;;5051428;28;20032;-74
2022/03/02 12:16:48;;;;;;;59.67;29.33;;;10.00;99.90;;;;;;5051731;28;20064;-72
2022/03/02 12:19:23;;;;;;;59.60;30.10;;;10.50;98.70;;;;;;5051135;28;20044;-72
2022/03/02 12:21:51;;;;;;;55.38;27.05;;;10.20;98.80;;;;;;5051273;28;20040;-72
2022/03/02 12:24:20;;;;;;;55.60;27.83;;;10.00;98.80;;;;;;5018146;28;20037;-73
2022/03/02 12:26:49;;;;;;;51.97;27.20;;;10.40;99.90;;;;;;5051017;28;20044;-74
2022/03/02 12:29:16;;;;;;;52.72;27.67;;;;;;;;;;5051210;28;20048;-74
2022/03/02 12:31:46;;;;;;;53.05;27.00;;;;;;;;;;5032270;28;20045;-72
2022/03/02 12:34:16;;;;;;;61.85;28.67;;;10.30;99.90;;;;;;5032074;28;20095;-72
2022/03/02 12:36:43;;;;;;;58.90;27.30;;;10.40;97.70;;;;;;5033379;28;20041;-72
2022/03/02 12:39:10;;;;;;;52.20;26.73;;;10.40;98.20;;;;;;5034751;28;20045;-72
2022/03/02 12:41:39;;;;;;;54.85;25.77;;;;;;;;;;5049928;28;20116;-72
2022/03/02 12:44:06;;;;;;;50.42;27.05;;;;;;;;;;5049798;28;20501;-73
2022/03/02 12:46:35;;;;;;;50.60;26.65;;;10.90;97.40;;;;;;5024035;28;20163;-72
2022/03/02 12:49:01;;;;;;;55.60;28.83;;;10.90;97.20;;;;;;5032736;28;20044;-72
2022/03/02 12:51:31;;;;;;;54.45;27.25;;;10.60;97.10;;;;;;5039427;28;20496;-74
2022/03/02 12:53:57;;;;;;;54.00;28.15;;;;;;;;;;5048596;28;20033;-72
2022/03/02 12:56:24;;;;;;;52.63;26.85;;;;;;;;;;5050822;28;20068;-72
2022/03/02 12:58:50;;;;;;;52.70;27.10;;;;;;;;;;5050800;28;20055;-71
2022/03/02 13:01:16;;;;;;;52.17;27.27;;;;;;;;;;5050428;28;20041;-71
2022/03/02 13:03:49;;;;;;;56.22;28.35;;;11.10;96.80;;;;;;5034005;28;20068;-71
2022/03/02 13:06:28;;;;;;;55.50;27.88;;;11.10;96.60;;;;;;5047671;28;20041;-71
2022/03/02 13:09:13;;;;;;;50.35;26.23;;;11.20;96.40;;;;;;5050911;28;20396;-71
2022/03/02 13:11:39;;;;;;;52.90;26.98;;;;;;;;;;5050734;28;20045;-71
2022/03/02 13:14:31;;;;;;;53.25;26.42;;;11.40;96.20;;;;;;5050930;28;20068;-71
2022/03/02 13:17:13;;;;;;;49.35;26.48;;;11.60;95.90;;;;;;5050180;28;20041;-71
2022/03/02 13:19:58;;;;;;;56.92;27.10;;;11.40;96.20;;;;;;5052138;28;20055;-74
2022/03/02 13:22:35;;;;;;;53.63;27.25;;;11.80;96.30;;;;;;5054719;28;20412;-74
2022/03/02 13:25:05;;;;;;;53.53;27.35;;;12.30;98.90;;;;;;5053445;28;20036;-71
2022/03/02 13:27:32;;;;;;;54.63;27.55;;;12.00;95.00;;;;;;5056070;28;20037;-71
2022/03/02 13:30:10;;;;;;;51.70;27.42;;;12.00;95.50;;;;;;5054488;28;20106;-74
2022/03/02 13:32:52;;;;;;;55.25;28.48;;;11.90;95.00;;;;;;5054956;28;20037;-74
2022/03/02 13:35:19;;;;;;;59.30;28.67;;;12.10;95.20;;;;;;5054480;28;20048;-79
2022/03/02 13:37:56;;;;;;;56.95;28.73;;;11.40;97.90;;;;;;5054925;28;20083;-75
2022/03/02 13:40:34;;;;;;;52.35;27.15;;;;;;;;;;5053390;28;20553;-74
2022/03/02 13:43:06;;;;;;;56.17;27.67;;;;;;;;;;5054545;28;20039;-74
2022/03/02 13:45:34;;;;;;;68.97;30.63;;;12.10;94.20;;;;;;5054244;28;20041;-74
2022/03/02 13:48:23;;;;;;;74.00;35.22;;;11.60;98.10;;;;;;5038496;28;20373;-75